Time;durP1;ratioP1;P1;durP2;ratioP2;P2;SDS_P1;SDS_P2;PMS_P1;PMS_P2;Temp;Humidity;BMP_temperature;BMP_pressure;BME280_temperature;BME280_humidity;BME280_pressure;Samples;Min_cycle;Max_cycle;Signal;HPM_P1;HPM_P2
2024/03/27 00:01:30;;;;;;;6.20;5.03;;;9.10;99.90;;;;;;5072327;28;20045;-67
2024/03/27 00:03:56;;;;;;;6.70;5.18;;;9.10;99.90;;;;;;5071734;28;20098;-67
2024/03/27 00:06:22;;;;;;;6.70;4.68;;;9.00;99.90;;;;;;5072022;28;20035;-67
2024/03/27 00:08:48;;;;;;;7.22;4.90;;;9.10;99.90;;;;;;5071629;28;20119;-67
2024/03/27 00:11:15;;;;;;;6.32;4.80;;;9.00;99.90;;;;;;5072025;28;20116;-67
2024/03/27 00:13:41;;;;;;;7.65;4.93;;;8.90;99.90;;;;;;5071708;28;20041;-67
2024/03/27 00:16:07;;;;;;;7.70;4.70;;;8.90;99.90;;;;;;5054284;28;20044;-68
2024/03/27 00:18:32;;;;;;;7.25;4.65;;;8.80;99.90;;;;;;5053877;28;20158;-68
2024/03/27 00:20:58;;;;;;;6.22;5.05;;;8.80;99.90;;;;;;5071740;28;20052;-68
2024/03/27 00:23:24;;;;;;;9.25;5.05;;;8.70;99.90;;;;;;5071323;28;20040;-68
2024/03/27 00:25:59;;;;;;;6.03;4.93;;;8.70;99.90;;;;;;5072091;28;20507;-68
2024/03/27 00:28:26;;;;;;;11.50;5.40;;;8.60;99.90;;;;;;5071672;28;20040;-68
2024/03/27 00:30:52;;;;;;;7.75;5.78;;;8.60;99.90;;;;;;5071547;28;20140;-68
2024/03/27 00:33:17;;;;;;;8.00;4.93;;;8.60;99.90;;;;;;5053319;28;20040;-68
2024/03/27 00:35:56;;;;;;;7.55;4.90;;;8.60;99.90;;;;;;5071757;28;20111;-68
2024/03/27 00:38:24;;;;;;;9.77;4.80;;;8.50;99.90;;;;;;5053738;28;20048;-68
2024/03/27 00:40:50;;;;;;;8.40;4.93;;;8.50;99.90;;;;;;5071629;28;20120;-67
2024/03/27 00:43:17;;;;;;;6.50;4.70;;;8.50;99.90;;;;;;5067247;28;20087;-67
2024/03/27 00:45:43;;;;;;;8.60;4.88;;;8.50;99.90;;;;;;5071577;28;20080;-68
2024/03/27 00:48:09;;;;;;;7.70;4.70;;;8.40;99.90;;;;;;5071422;28;20039;-68
2024/03/27 00:50:35;;;;;;;8.25;5.25;;;8.40;99.90;;;;;;5071226;28;20045;-68
2024/03/27 00:53:02;;;;;;;6.15;4.90;;;8.40;99.90;;;;;;5053098;28;20040;-67
2024/03/27 00:55:28;;;;;;;6.80;4.80;;;8.40;99.90;;;;;;5071539;28;20500;-67
2024/03/27 00:57:55;;;;;;;10.48;4.95;;;8.40;99.90;;;;;;5053457;28;20040;-67
2024/03/27 01:00:22;;;;;;;9.88;4.55;;;8.40;99.90;;;;;;5071207;28;20072;-67
2024/03/27 01:02:48;;;;;;;9.25;5.50;;;8.40;99.90;;;;;;5070967;28;20041;-67
2024/03/27 01:05:15;;;;;;;8.07;4.72;;;8.30;99.90;;;;;;5071375;28;20124;-67
2024/03/27 01:07:41;;;;;;;7.80;5.15;;;8.30;99.90;;;;;;5053280;28;20040;-67
2024/03/27 01:10:11;;;;;;;10.98;5.07;;;8.30;99.90;;;;;;5071276;28;20045;-67
2024/03/27 01:12:40;;;;;;;8.73;4.82;;;8.30;99.90;;;;;;5070984;28;20052;-67
2024/03/27 01:15:07;;;;;;;7.28;4.78;;;8.30;99.90;;;;;;5053469;28;20079;-67
2024/03/27 01:17:33;;;;;;;8.00;4.90;;;8.20;99.90;;;;;;5071166;28;20068;-67
2024/03/27 01:20:00;;;;;;;8.48;5.28;;;8.20;99.90;;;;;;5071185;28;20033;-68
2024/03/27 01:22:25;;;;;;;7.88;5.43;;;8.20;99.90;;;;;;5052774;28;20089;-67
2024/03/27 01:24:51;;;;;;;7.13;5.10;;;8.20;99.90;;;;;;5071332;28;20036;-67
2024/03/27 01:27:17;;;;;;;7.47;4.57;;;8.10;99.90;;;;;;5053259;28;20567;-67
2024/03/27 01:29:42;;;;;;;7.20;4.97;;;8.10;99.90;;;;;;5070901;28;20041;-68
2024/03/27 01:32:08;;;;;;;8.23;5.18;;;8.10;99.90;;;;;;5070817;28;20112;-68
2024/03/27 01:34:34;;;;;;;8.73;5.35;;;8.10;99.90;;;;;;5071074;28;20036;-68
2024/03/27 01:36:59;;;;;;;7.68;4.97;;;8.10;99.90;;;;;;5053042;28;20079;-68
2024/03/27 01:39:25;;;;;;;8.85;4.78;;;8.10;99.90;;;;;;5070605;28;20465;-67
2024/03/27 01:41:51;;;;;;;7.22;4.97;;;8.10;99.90;;;;;;5055098;28;20516;-68
2024/03/27 01:44:18;;;;;;;9.68;4.80;;;8.10;99.90;;;;;;5074480;28;20132;-67
2024/03/27 01:46:50;;;;;;;9.07;5.75;;;8.10;99.90;;;;;;5074798;28;20032;-67
2024/03/27 01:49:17;;;;;;;8.43;4.82;;;8.10;99.90;;;;;;5074531;28;20037;-68
2024/03/27 01:51:43;;;;;;;7.95;4.80;;;8.10;99.90;;;;;;5074850;28;20051;-68
2024/03/27 01:54:12;;;;;;;6.80;5.20;;;8.10;99.90;;;;;;5074376;28;20044;-68
2024/03/27 01:56:38;;;;;;;8.23;5.15;;;8.10;99.90;;;;;;5074452;28;20389;-68
2024/03/27 01:59:04;;;;;;;7.95;4.95;;;8.10;99.90;;;;;;5074231;28;20044;-67
2024/03/27 02:01:32;;;;;;;7.82;5.00;;;8.10;99.90;;;;;;5056578;28;20036;-68
2024/03/27 02:03:59;;;;;;;7.32;4.68;;;8.10;99.90;;;;;;5074185;28;20045;-68
2024/03/27 02:06:25;;;;;;;7.25;5.22;;;8.20;99.90;;;;;;5074557;28;20078;-67
2024/03/27 02:08:51;;;;;;;6.45;4.90;;;8.20;99.90;;;;;;5074528;28;20036;-68
2024/03/27 02:11:17;;;;;;;9.18;4.97;;;8.10;99.90;;;;;;5074193;28;20036;-68
2024/03/27 02:13:46;;;;;;;7.32;4.55;;;8.10;99.90;;;;;;5073912;28;20068;-68
2024/03/27 02:16:12;;;;;;;6.65;5.15;;;8.20;99.90;;;;;;5074231;28;20044;-67
2024/03/27 02:18:38;;;;;;;5.43;4.13;;;8.20;99.90;;;;;;5056394;28;20076;-68
2024/03/27 02:21:05;;;;;;;7.93;4.70;;;8.30;99.90;;;;;;5056233;28;20130;-68
2024/03/27 02:23:36;;;;;;;7.85;5.03;;;8.20;99.90;;;;;;5073823;28;20036;-68
2024/03/27 02:26:08;;;;;;;7.95;5.45;;;8.20;99.90;;;;;;5074183;28;20037;-68
2024/03/27 02:28:34;;;;;;;7.38;5.22;;;8.20;99.90;;;;;;5073987;28;20135;-68
2024/03/27 02:30:59;;;;;;;7.15;5.28;;;8.20;99.90;;;;;;5055904;28;20079;-67
2024/03/27 02:33:25;;;;;;;5.40;4.22;;;8.10;99.90;;;;;;5073652;28;20147;-67
2024/03/27 02:35:50;;;;;;;7.13;5.20;;;8.10;99.90;;;;;;5039426;28;20076;-68
2024/03/27 02:38:16;;;;;;;9.88;5.45;;;8.10;99.90;;;;;;5073844;28;20476;-68
2024/03/27 02:40:41;;;;;;;6.80;4.20;;;8.10;99.90;;;;;;5073622;28;20032;-67
2024/03/27 02:43:07;;;;;;;7.82;4.88;;;8.10;99.90;;;;;;5073262;28;20040;-67
2024/03/27 02:45:33;;;;;;;6.10;4.05;;;8.10;99.90;;;;;;5073971;28;20471;-68
2024/03/27 02:47:58;;;;;;;8.05;5.88;;;8.00;99.90;;;;;;5055720;28;20040;-68
2024/03/27 02:50:25;;;;;;;9.02;4.95;;;8.10;99.90;;;;;;5073367;28;20032;-68
2024/03/27 02:52:51;;;;;;;7.30;4.85;;;8.00;99.90;;;;;;5055152;28;20083;-68
2024/03/27 02:55:17;;;;;;;7.68;5.00;;;8.00;99.90;;;;;;5055707;28;20051;-68
2024/03/27 02:57:42;;;;;;;8.02;5.45;;;8.00;99.90;;;;;;5073304;28;20040;-68
2024/03/27 03:00:10;;;;;;;11.38;5.32;;;8.00;99.90;;;;;;5055272;28;20066;-68
2024/03/27 03:02:36;;;;;;;9.05;5.40;;;8.00;99.90;;;;;;5055317;28;20048;-68
2024/03/27 03:05:02;;;;;;;8.68;5.55;;;7.90;99.90;;;;;;5073508;28;20044;-68
2024/03/27 03:07:28;;;;;;;7.97;5.30;;;8.00;99.90;;;;;;5055357;28;20409;-67
2024/03/27 03:09:54;;;;;;;11.15;5.03;;;7.90;99.90;;;;;;5073088;28;20044;-67
2024/03/27 03:12:20;;;;;;;7.40;4.90;;;7.90;99.90;;;;;;5054944;28;20047;-68
2024/03/27 03:14:45;;;;;;;6.47;4.80;;;7.90;99.90;;;;;;5055325;28;20048;-67
2024/03/27 03:17:11;;;;;;;9.43;5.95;;;7.80;99.90;;;;;;5073361;28;20040;-67
2024/03/27 03:19:36;;;;;;;7.13;5.30;;;7.80;99.90;;;;;;5055038;28;20054;-67
2024/03/27 03:22:04;;;;;;;9.32;5.95;;;7.80;99.90;;;;;;5055435;28;20504;-67
2024/03/27 03:24:30;;;;;;;7.38;5.05;;;7.80;99.90;;;;;;5072578;28;20033;-67
2024/03/27 03:26:55;;;;;;;8.48;5.18;;;7.80;99.90;;;;;;5072962;28;20058;-68
2024/03/27 03:29:21;;;;;;;9.68;4.95;;;7.80;99.90;;;;;;5072895;28;20446;-68
2024/03/27 03:31:47;;;;;;;8.40;5.13;;;7.80;99.90;;;;;;5073079;28;20567;-67
2024/03/27 03:34:12;;;;;;;7.05;5.60;;;7.80;99.90;;;;;;5072325;28;20079;-68
2024/03/27 03:36:39;;;;;;;9.55;5.63;;;7.70;99.90;;;;;;5072725;28;20072;-68
2024/03/27 03:39:05;;;;;;;5.40;4.50;;;7.80;99.90;;;;;;5072215;28;20174;-67
2024/03/27 03:41:30;;;;;;;6.82;6.10;;;7.70;99.90;;;;;;5072584;28;20591;-67
2024/03/27 03:43:56;;;;;;;6.50;4.82;;;7.80;99.90;;;;;;5072260;28;20047;-67
2024/03/27 03:46:22;;;;;;;7.57;5.03;;;7.80;99.90;;;;;;5072682;28;20035;-67
2024/03/27 03:48:47;;;;;;;6.43;4.72;;;7.80;99.90;;;;;;5072569;28;20036;-67
2024/03/27 03:51:13;;;;;;;8.48;5.70;;;7.80;99.90;;;;;;5072359;28;20036;-68
2024/03/27 03:53:38;;;;;;;10.63;5.22;;;7.80;99.90;;;;;;5072043;28;20066;-68
2024/03/27 03:56:05;;;;;;;8.80;5.78;;;7.80;99.90;;;;;;5072361;28;20080;-68
2024/03/27 03:58:31;;;;;;;11.45;4.88;;;7.80;99.90;;;;;;5054551;28;20040;-68
2024/03/27 04:00:57;;;;;;;7.30;4.95;;;7.80;99.90;;;;;;5072136;28;20698;-68
2024/03/27 04:03:23;;;;;;;7.53;4.97;;;7.80;99.90;;;;;;5071434;28;20035;-68
2024/03/27 04:05:48;;;;;;;9.05;5.10;;;7.80;99.90;;;;;;5072024;28;20040;-68
2024/03/27 04:08:14;;;;;;;7.72;4.85;;;7.80;99.90;;;;;;5072178;28;20112;-68
2024/03/27 04:10:44;;;;;;;9.27;5.20;;;7.80;99.90;;;;;;5054149;28;20040;-68
2024/03/27 04:13:09;;;;;;;7.13;5.18;;;7.90;99.90;;;;;;5071746;28;20036;-68
2024/03/27 04:15:42;;;;;;;6.43;4.80;;;7.90;99.90;;;;;;5072007;28;20036;-68
2024/03/27 04:18:08;;;;;;;9.50;6.43;;;7.90;99.90;;;;;;5053979;28;20040;-67
2024/03/27 04:20:34;;;;;;;6.90;4.97;;;7.90;99.90;;;;;;5071682;28;20036;-68
2024/03/27 04:23:00;;;;;;;9.63;5.22;;;8.00;99.90;;;;;;5071354;28;20114;-68
2024/03/27 04:25:26;;;;;;;8.80;5.38;;;7.90;99.90;;;;;;5072062;28;20040;-68
2024/03/27 04:27:52;;;;;;;8.75;5.80;;;7.90;99.90;;;;;;5071943;28;20564;-68
2024/03/27 04:30:18;;;;;;;7.20;5.00;;;8.00;99.90;;;;;;5053786;28;20075;-68
2024/03/27 04:32:44;;;;;;;8.93;5.30;;;8.00;99.90;;;;;;5071270;28;20500;-68
2024/03/27 04:35:10;;;;;;;9.35;5.25;;;8.00;99.90;;;;;;5071895;28;20036;-68
2024/03/27 04:37:36;;;;;;;8.43;5.28;;;8.00;99.90;;;;;;5071470;28;20044;-67
2024/03/27 04:40:20;;;;;;;7.63;5.50;;;8.10;99.90;;;;;;5053894;28;20047;-68
2024/03/27 04:42:46;;;;;;;6.75;5.32;;;8.10;99.90;;;;;;5053560;28;20127;-68
2024/03/27 04:45:12;;;;;;;6.50;4.47;;;8.10;99.90;;;;;;5053930;28;20037;-68
2024/03/27 04:47:37;;;;;;;7.65;5.55;;;8.10;99.90;;;;;;5071539;28;20032;-68
2024/03/27 04:50:04;;;;;;;8.70;5.03;;;8.10;99.90;;;;;;5071313;28;20158;-68
2024/03/27 04:52:31;;;;;;;8.32;5.22;;;8.10;99.90;;;;;;5071253;28;20410;-67
2024/03/27 04:54:56;;;;;;;8.05;5.47;;;8.10;99.90;;;;;;5053556;28;20053;-68
2024/03/27 04:57:22;;;;;;;7.32;5.55;;;8.10;99.90;;;;;;5053509;28;20407;-67
2024/03/27 04:59:48;;;;;;;8.18;4.90;;;8.10;99.90;;;;;;5071246;28;20530;-68
2024/03/27 05:02:13;;;;;;;6.72;5.53;;;8.10;99.90;;;;;;5053075;28;20044;-68
2024/03/27 05:04:39;;;;;;;10.20;5.88;;;8.10;99.90;;;;;;5053393;28;20043;-68
2024/03/27 05:07:05;;;;;;;10.45;5.80;;;8.10;99.90;;;;;;5071265;28;20028;-68
2024/03/27 05:09:31;;;;;;;7.13;5.45;;;8.10;99.90;;;;;;5053199;28;20496;-68
2024/03/27 05:12:03;;;;;;;6.97;5.30;;;8.20;99.90;;;;;;5053395;28;20089;-68
2024/03/27 05:14:29;;;;;;;7.60;5.03;;;8.10;99.90;;;;;;5070839;28;20496;-68
2024/03/27 05:16:56;;;;;;;7.82;5.28;;;8.20;99.90;;;;;;5075287;28;20475;-68
2024/03/27 05:19:23;;;;;;;9.35;5.70;;;8.30;99.90;;;;;;5074950;28;20045;-68
2024/03/27 05:21:49;;;;;;;7.05;5.40;;;8.20;99.90;;;;;;5075645;28;20068;-68
2024/03/27 05:24:15;;;;;;;7.93;5.18;;;8.20;99.90;;;;;;5056996;28;20093;-67
2024/03/27 05:26:40;;;;;;;7.55;5.00;;;8.20;99.90;;;;;;5075053;28;20115;-68
2024/03/27 05:29:06;;;;;;;7.57;5.15;;;8.20;99.90;;;;;;5074559;28;20040;-68
2024/03/27 05:31:32;;;;;;;11.80;6.53;;;8.30;99.90;;;;;;5057086;28;20047;-68
2024/03/27 05:33:58;;;;;;;7.72;4.82;;;8.30;99.90;;;;;;5074451;28;20041;-68
2024/03/27 05:36:24;;;;;;;8.68;5.13;;;8.30;99.90;;;;;;5075229;28;20067;-68
2024/03/27 05:38:50;;;;;;;10.88;5.70;;;8.30;99.90;;;;;;5089223;22;20068;-73
2024/03/27 05:41:16;;;;;;;6.68;5.35;;;8.30;99.90;;;;;;5075126;28;20110;-73
2024/03/27 05:43:42;;;;;;;8.85;5.72;;;8.30;99.90;;;;;;5073793;28;20147;-73
2024/03/27 05:46:07;;;;;;;9.63;5.60;;;8.30;99.90;;;;;;5073471;28;20084;-73
2024/03/27 05:48:33;;;;;;;8.52;5.80;;;8.30;99.90;;;;;;5073749;28;20403;-73
2024/03/27 05:50:58;;;;;;;15.60;6.03;;;8.40;99.90;;;;;;5074722;28;20492;-73
2024/03/27 05:53:24;;;;;;;5.72;4.95;;;8.40;99.90;;;;;;5073074;28;20032;-73
2024/03/27 05:55:57;;;;;;;7.72;5.45;;;8.40;99.90;;;;;;5074852;28;20044;-73
2024/03/27 05:58:23;;;;;;;7.70;5.82;;;8.40;99.90;;;;;;5074568;28;20468;-73
2024/03/27 06:00:49;;;;;;;10.18;5.75;;;8.30;99.90;;;;;;5074240;28;20047;-73
2024/03/27 06:03:15;;;;;;;9.43;5.47;;;8.40;99.90;;;;;;5073925;28;20120;-73
2024/03/27 06:05:41;;;;;;;6.55;5.32;;;8.40;99.90;;;;;;5056720;28;20075;-72
2024/03/27 06:08:07;;;;;;;8.80;5.07;;;8.40;99.90;;;;;;5073400;28;20040;-73
2024/03/27 06:10:33;;;;;;;8.60;5.57;;;8.50;99.90;;;;;;5073023;28;20650;-73
2024/03/27 06:13:04;;;;;;;8.40;5.90;;;8.60;99.90;;;;;;5073989;28;20492;-73
2024/03/27 06:15:30;;;;;;;7.70;4.97;;;8.70;99.90;;;;;;5073054;28;20048;-73
2024/03/27 06:17:56;;;;;;;9.80;6.30;;;8.80;99.90;;;;;;5074476;28;20036;-73
2024/03/27 06:20:23;;;;;;;8.40;5.68;;;8.80;99.90;;;;;;5072765;28;20041;-73
2024/03/27 06:22:50;;;;;;;5.65;4.60;;;8.80;99.90;;;;;;5072593;28;20098;-73
2024/03/27 06:25:16;;;;;;;9.60;4.88;;;8.80;99.90;;;;;;5072940;28;20115;-73
2024/03/27 06:27:42;;;;;;;7.68;5.05;;;8.80;99.90;;;;;;5072259;28;20037;-73
2024/03/27 06:30:08;;;;;;;8.00;4.90;;;8.80;99.90;;;;;;5073644;28;20416;-73
2024/03/27 06:32:34;;;;;;;8.63;4.90;;;8.90;99.90;;;;;;5073856;28;20036;-73
2024/03/27 06:35:00;;;;;;;10.18;4.90;;;8.90;99.90;;;;;;5074143;28;20508;-73
2024/03/27 06:37:26;;;;;;;10.35;5.47;;;9.00;99.90;;;;;;5072944;28;20052;-73
2024/03/27 06:39:52;;;;;;;12.52;5.80;;;9.10;99.90;;;;;;5072319;28;20412;-74
2024/03/27 06:42:17;;;;;;;9.73;5.38;;;9.40;99.90;;;;;;5073341;28;20037;-73
2024/03/27 06:44:44;;;;;;;9.23;5.47;;;9.70;99.90;;;;;;5073545;28;20427;-73
2024/03/27 06:47:10;;;;;;;7.68;5.15;;;9.90;99.90;;;;;;5072638;28;20033;-73
2024/03/27 06:49:36;;;;;;;9.50;5.88;;;10.00;99.90;;;;;;5073490;28;20519;-73
2024/03/27 06:52:01;;;;;;;10.40;5.65;;;9.90;99.90;;;;;;5073825;28;20089;-74
2024/03/27 06:54:27;;;;;;;8.82;5.15;;;10.10;99.90;;;;;;5071973;28;20066;-73
2024/03/27 06:56:53;;;;;;;9.68;5.65;;;10.20;99.90;;;;;;5073406;28;20404;-73
2024/03/27 06:59:18;;;;;;;7.30;4.85;;;10.30;99.90;;;;;;5072141;28;20078;-74
2024/03/27 07:01:44;;;;;;;8.70;5.60;;;10.40;99.90;;;;;;5073847;28;20533;-73
2024/03/27 07:04:10;;;;;;;8.98;5.38;;;10.50;99.90;;;;;;5073347;28;20112;-73
2024/03/27 07:06:36;;;;;;;7.63;5.93;;;10.70;99.90;;;;;;5072412;28;20098;-73
2024/03/27 07:09:06;;;;;;;7.53;5.50;;;10.80;99.90;;;;;;5071875;28;20539;-74
2024/03/27 07:11:31;;;;;;;7.63;5.60;;;10.80;99.90;;;;;;5073455;28;20146;-73
2024/03/27 07:13:57;;;;;;;10.45;5.63;;;10.80;99.90;;;;;;5072716;28;20499;-73
2024/03/27 07:16:23;;;;;;;9.00;6.05;;;10.90;99.90;;;;;;5073455;28;20047;-73
2024/03/27 07:18:49;;;;;;;9.48;5.53;;;11.00;99.90;;;;;;5073268;28;20067;-73
2024/03/27 07:21:14;;;;;;;8.25;5.60;;;11.10;99.90;;;;;;5071801;28;20556;-73
2024/03/27 07:23:40;;;;;;;7.85;5.22;;;11.10;99.90;;;;;;5071442;28;20524;-73
2024/03/27 07:26:07;;;;;;;11.05;5.75;;;11.10;99.90;;;;;;5071700;28;20039;-74
2024/03/27 07:28:32;;;;;;;8.93;5.90;;;11.10;99.90;;;;;;5071523;28;20044;-73
2024/03/27 07:30:59;;;;;;;7.93;5.28;;;11.20;99.90;;;;;;5071501;28;20036;-74
2024/03/27 07:33:25;;;;;;;10.95;5.07;;;11.50;99.90;;;;;;5071468;28;20444;-74
2024/03/27 07:35:51;;;;;;;11.35;5.95;;;11.90;99.90;;;;;;5072981;28;20039;-74
2024/03/27 07:38:17;;;;;;;11.80;5.88;;;12.30;99.90;;;;;;5071946;28;20047;-74
2024/03/27 07:40:43;;;;;;;10.80;6.28;;;12.80;99.90;;;;;;5054117;28;20037;-74
2024/03/27 07:43:08;;;;;;;10.63;6.35;;;13.20;99.90;;;;;;5071156;28;20073;-74
2024/03/27 07:45:34;;;;;;;6.63;5.47;;;13.40;99.90;;;;;;5072813;28;20036;-74
2024/03/27 07:48:00;;;;;;;10.07;6.47;;;13.50;99.90;;;;;;5074230;28;20031;-74
2024/03/27 07:50:26;;;;;;;9.88;5.40;;;13.40;99.90;;;;;;5081056;28;20442;-74
2024/03/27 07:52:51;;;;;;;6.95;5.18;;;13.60;99.90;;;;;;5076933;28;20033;-73
2024/03/27 07:55:17;;;;;;;6.07;5.47;;;13.80;99.90;;;;;;5071071;28;20048;-74
2024/03/27 07:57:42;;;;;;;7.47;5.07;;;13.90;99.90;;;;;;5072349;28;20040;-74
2024/03/27 08:00:11;;;;;;;8.60;5.00;;;13.90;99.90;;;;;;5072236;28;20625;-74
2024/03/27 08:02:38;;;;;;;8.13;5.38;;;13.80;99.90;;;;;;5071840;28;20518;-74
2024/03/27 08:05:05;;;;;;;7.22;4.88;;;13.70;99.90;;;;;;5071248;28;20412;-74
2024/03/27 08:07:34;;;;;;;6.35;4.43;;;13.60;99.90;;;;;;5072261;28;20443;-74
2024/03/27 08:10:00;;;;;;;7.15;4.28;;;13.60;99.90;;;;;;5071863;28;20076;-74
2024/03/27 08:12:26;;;;;;;7.97;4.35;;;13.50;99.90;;;;;;5070332;28;20090;-74
2024/03/27 08:14:52;;;;;;;7.50;4.20;;;13.50;99.90;;;;;;5072115;28;20120;-74
2024/03/27 08:17:18;;;;;;;6.97;4.43;;;13.50;99.90;;;;;;5072147;28;20038;-74
2024/03/27 08:19:44;;;;;;;6.05;4.03;;;13.40;99.90;;;;;;5070366;28;20123;-74
2024/03/27 08:22:10;;;;;;;7.47;3.80;;;13.40;99.90;;;;;;5071777;28;20083;-74
2024/03/27 08:24:36;;;;;;;6.07;3.55;;;13.30;99.90;;;;;;5071848;28;20037;-74
2024/03/27 08:27:03;;;;;;;5.75;4.18;;;13.20;99.90;;;;;;5072021;28;20043;-74
2024/03/27 08:29:32;;;;;;;5.78;3.67;;;13.10;99.90;;;;;;5070367;28;20054;-74
2024/03/27 08:31:58;;;;;;;6.43;4.05;;;13.10;99.90;;;;;;5066320;28;20040;-74
2024/03/27 08:34:24;;;;;;;4.60;3.33;;;13.10;99.90;;;;;;5069931;28;20132;-74
2024/03/27 08:36:49;;;;;;;7.65;4.05;;;13.00;99.90;;;;;;5065821;28;20112;-73
2024/03/27 08:39:15;;;;;;;6.93;4.18;;;13.00;99.90;;;;;;5068776;28;20109;-73
2024/03/27 08:41:42;;;;;;;5.45;4.38;;;13.00;99.90;;;;;;5071853;28;20047;-74
2024/03/27 08:44:08;;;;;;;6.28;3.78;;;13.10;99.90;;;;;;5072462;28;20045;-74
2024/03/27 08:46:34;;;;;;;7.60;4.45;;;13.00;99.90;;;;;;5072455;28;20037;-74
2024/03/27 08:49:00;;;;;;;5.47;3.90;;;13.00;99.90;;;;;;5072493;28;20033;-73
2024/03/27 08:51:26;;;;;;;6.78;4.20;;;12.90;99.90;;;;;;5070998;28;20048;-74
2024/03/27 08:53:52;;;;;;;6.63;4.55;;;12.90;99.90;;;;;;5072204;28;20131;-74
2024/03/27 08:56:19;;;;;;;5.93;4.40;;;12.80;99.90;;;;;;5072208;28;20116;-74
2024/03/27 08:58:46;;;;;;;6.57;4.38;;;12.90;99.90;;;;;;5071345;28;20087;-74
2024/03/27 09:01:19;;;;;;;6.43;4.25;;;12.80;99.90;;;;;;5071860;28;20049;-74
2024/03/27 09:03:46;;;;;;;8.40;4.45;;;12.80;99.90;;;;;;5071599;28;20044;-74
2024/03/27 09:06:13;;;;;;;5.47;4.30;;;12.80;99.90;;;;;;5071968;28;20556;-74
2024/03/27 09:08:39;;;;;;;6.90;4.65;;;12.80;99.90;;;;;;5076835;28;20531;-74
2024/03/27 09:11:07;;;;;;;7.40;4.22;;;12.80;99.90;;;;;;5080375;28;20076;-74
2024/03/27 09:13:33;;;;;;;5.82;4.45;;;12.90;99.90;;;;;;5079618;28;20032;-73
2024/03/27 09:16:01;;;;;;;4.90;3.90;;;13.00;99.90;;;;;;5076325;28;20085;-74
2024/03/27 09:18:27;;;;;;;5.70;4.30;;;13.20;99.90;;;;;;5071319;28;20060;-72
2024/03/27 09:20:58;;;;;;;5.82;4.15;;;13.40;99.90;;;;;;5071002;28;20123;-72
2024/03/27 09:23:24;;;;;;;6.47;4.40;;;13.70;99.90;;;;;;5069649;28;20037;-73
2024/03/27 09:25:59;;;;;;;9.88;4.55;;;13.90;99.90;;;;;;5071448;28;20032;-73
2024/03/27 09:28:26;;;;;;;8.07;4.97;;;14.10;99.90;;;;;;5070107;28;20488;-73
2024/03/27 09:30:52;;;;;;;7.20;5.20;;;14.40;99.90;;;;;;5071188;28;20093;-73
2024/03/27 09:33:18;;;;;;;8.32;4.30;;;14.40;99.90;;;;;;5069523;28;20646;-73
2024/03/27 09:35:46;;;;;;;6.35;4.35;;;14.30;99.90;;;;;;5071475;28;20040;-74
2024/03/27 09:38:12;;;;;;;8.48;5.18;;;14.40;99.90;;;;;;5071091;28;20432;-73
2024/03/27 09:40:51;;;;;;;5.75;4.97;;;14.30;99.90;;;;;;5070991;28;20036;-74
2024/03/27 09:43:18;;;;;;;7.45;5.10;;;14.30;99.90;;;;;;5070656;28;20119;-74
2024/03/27 09:45:44;;;;;;;7.60;5.78;;;14.40;99.90;;;;;;5071178;28;20121;-73
2024/03/27 09:48:10;;;;;;;7.22;5.78;;;14.30;99.90;;;;;;5071382;28;20064;-73
2024/03/27 09:50:36;;;;;;;6.40;4.90;;;14.30;99.90;;;;;;5071054;28;20040;-73
2024/03/27 09:53:06;;;;;;;6.00;4.57;;;14.30;99.90;;;;;;5070759;28;20036;-73
2024/03/27 09:55:33;;;;;;;5.90;5.00;;;14.30;99.90;;;;;;5071207;28;20405;-73
2024/03/27 09:58:08;;;;;;;6.95;4.97;;;14.20;99.90;;;;;;5069726;28;20096;-74
2024/03/27 10:00:34;;;;;;;5.95;5.35;;;14.30;99.90;;;;;;5069442;28;20114;-74
2024/03/27 10:03:01;;;;;;;7.25;4.88;;;14.40;99.90;;;;;;5054678;28;20041;-74
2024/03/27 10:05:27;;;;;;;7.90;5.25;;;14.30;99.90;;;;;;5077107;28;20029;-73
2024/03/27 10:07:54;;;;;;;7.22;5.68;;;14.20;99.90;;;;;;5082624;28;20036;-73
2024/03/27 10:10:20;;;;;;;6.50;5.13;;;14.10;99.90;;;;;;5066890;28;20028;-74
2024/03/27 10:12:46;;;;;;;6.90;5.53;;;13.90;99.90;;;;;;5080695;28;20105;-74
2024/03/27 10:15:12;;;;;;;6.82;5.53;;;13.70;99.90;;;;;;5078687;28;20035;-74
2024/03/27 10:17:38;;;;;;;7.90;5.32;;;13.60;99.90;;;;;;5074081;28;20054;-72
2024/03/27 10:20:05;;;;;;;6.85;5.13;;;13.40;99.90;;;;;;5093266;28;20723;-71
2024/03/27 10:22:32;;;;;;;7.00;5.22;;;13.40;99.90;;;;;;5070722;28;20072;-74
2024/03/27 10:24:59;;;;;;;7.53;6.30;;;13.30;99.90;;;;;;5071091;28;20036;-73
2024/03/27 10:27:26;;;;;;;9.55;5.95;;;13.20;99.90;;;;;;5073539;28;20045;-73
2024/03/27 10:29:52;;;;;;;6.90;6.00;;;13.20;99.90;;;;;;5072576;28;20471;-73
2024/03/27 10:32:19;;;;;;;6.68;5.70;;;13.10;99.90;;;;;;5072116;28;20082;-73
2024/03/27 10:34:47;;;;;;;18.35;7.18;;;13.10;99.90;;;;;;5074060;28;20097;-73
2024/03/27 10:37:14;;;;;;;7.15;5.70;;;12.90;99.90;;;;;;5073875;28;20120;-73
2024/03/27 10:39:50;;;;;;;7.68;6.20;;;12.90;99.90;;;;;;5073010;28;20484;-73
2024/03/27 10:42:24;;;;;;;8.13;5.40;;;12.90;99.90;;;;;;5071856;28;20040;-73
2024/03/27 10:44:58;;;;;;;8.32;4.97;;;12.70;99.90;;;;;;5071555;28;20107;-73
2024/03/27 10:47:33;;;;;;;5.75;4.60;;;12.70;99.90;;;;;;5072827;28;20089;-73
2024/03/27 10:50:00;;;;;;;7.07;4.97;;;12.60;99.90;;;;;;5071192;28;20044;-73
2024/03/27 10:52:26;;;;;;;7.68;5.03;;;12.50;99.90;;;;;;5070841;28;20128;-73
2024/03/27 10:54:53;;;;;;;8.02;4.85;;;12.30;99.90;;;;;;5071394;28;20507;-73
2024/03/27 10:57:21;;;;;;;7.53;5.22;;;12.30;99.90;;;;;;5063421;28;20045;-74
2024/03/27 10:59:48;;;;;;;10.15;5.10;;;12.20;99.90;;;;;;5053961;28;20455;-73
2024/03/27 11:02:17;;;;;;;13.93;6.22;;;12.10;99.90;;;;;;5063946;28;20047;-74
2024/03/27 11:04:43;;;;;;;6.45;5.07;;;12.10;99.90;;;;;;5071751;28;20078;-73
2024/03/27 11:07:10;;;;;;;8.10;4.80;;;12.00;99.90;;;;;;5072584;28;20523;-73
2024/03/27 11:09:36;;;;;;;10.05;5.70;;;11.90;99.90;;;;;;5054385;28;20063;-73
2024/03/27 11:12:04;;;;;;;9.23;5.57;;;11.80;99.90;;;;;;5071512;28;20068;-73
2024/03/27 11:14:35;;;;;;;6.93;4.95;;;11.80;99.90;;;;;;5075883;28;20467;-73
2024/03/27 11:17:02;;;;;;;7.45;5.05;;;11.70;99.90;;;;;;5081296;28;20093;-72
2024/03/27 11:19:38;;;;;;;10.70;5.03;;;11.80;99.90;;;;;;5070994;28;20047;-73
2024/03/27 11:22:10;;;;;;;8.30;4.65;;;11.80;99.90;;;;;;5071811;28;20040;-73
2024/03/27 11:24:36;;;;;;;7.50;4.30;;;11.80;99.90;;;;;;5071792;28;20068;-73
2024/03/27 11:27:03;;;;;;;6.05;3.40;;;11.90;99.90;;;;;;5071631;28;20334;-73
2024/03/27 11:29:30;;;;;;;4.10;3.22;;;11.80;99.90;;;;;;5071102;28;20054;-73
2024/03/27 11:32:00;;;;;;;5.03;3.15;;;11.90;99.90;;;;;;5064476;28;20082;-73
2024/03/27 11:34:26;;;;;;;6.32;3.30;;;11.90;99.90;;;;;;5072626;28;20067;-73
2024/03/27 11:36:53;;;;;;;4.32;2.67;;;11.90;99.90;;;;;;5071010;28;20067;-73
2024/03/27 11:39:20;;;;;;;4.65;3.10;;;11.90;99.90;;;;;;5068324;28;20041;-73
2024/03/27 11:41:50;;;;;;;6.57;3.65;;;12.00;99.90;;;;;;5071895;28;20033;-73
2024/03/27 11:44:16;;;;;;;6.80;3.10;;;12.00;99.90;;;;;;5071032;28;20040;-73
2024/03/27 11:46:42;;;;;;;6.55;3.05;;;12.00;99.90;;;;;;5071539;28;20040;-75
2024/03/27 11:49:08;;;;;;;6.55;2.90;;;12.10;99.90;;;;;;5071054;28;20036;-75
2024/03/27 11:51:35;;;;;;;4.15;2.63;;;12.10;99.90;;;;;;5071283;28;20097;-74
2024/03/27 11:54:01;;;;;;;2.63;2.25;;;12.20;99.90;;;;;;5070776;28;20135;-72
2024/03/27 11:56:34;;;;;;;3.65;2.88;;;12.30;99.90;;;;;;5071136;28;20051;-72
2024/03/27 11:59:00;;;;;;;;;;;12.30;99.90;;;;;;5071481;28;20040;-72
2024/03/27 12:01:26;;;;;;;4.30;3.15;;;12.30;99.90;;;;;;5072075;28;19971;-72
2024/03/27 12:03:53;;;;;;;4.70;3.10;;;12.30;99.90;;;;;;5071911;28;20397;-72
2024/03/27 12:06:20;;;;;;;5.80;3.17;;;12.20;99.90;;;;;;5071159;28;20068;-72
2024/03/27 12:08:48;;;;;;;13.18;3.35;;;12.20;99.90;;;;;;5070936;28;20076;-72
2024/03/27 12:11:16;;;;;;;4.80;3.78;;;12.10;99.90;;;;;;5072117;28;20052;-72
2024/03/27 12:13:42;;;;;;;7.85;3.78;;;12.10;99.90;;;;;;5070574;28;20051;-72
2024/03/27 12:16:11;;;;;;;5.85;3.35;;;12.10;99.90;;;;;;5071085;28;20578;-71
2024/03/27 12:18:38;;;;;;;8.63;4.10;;;12.20;99.90;;;;;;5071976;28;20052;-75
2024/03/27 12:21:15;;;;;;;9.15;4.15;;;12.10;99.90;;;;;;5053586;28;20127;-75
2024/03/27 12:23:43;;;;;;;8.20;4.40;;;12.10;99.90;;;;;;5071095;28;20043;-77
2024/03/27 12:26:17;;;;;;;9.60;5.38;;;12.10;99.90;;;;;;5070222;28;20099;-77
2024/03/27 12:28:44;;;;;;;12.20;5.40;;;11.90;99.90;;;;;;5071024;28;20517;-77
2024/03/27 12:31:10;;;;;;;8.45;5.22;;;11.80;99.90;;;;;;5054279;28;20067;-77
2024/03/27 12:33:36;;;;;;;9.43;4.70;;;11.80;99.90;;;;;;5070311;28;20044;-77
2024/03/27 12:36:03;;;;;;;9.05;5.18;;;11.70;99.90;;;;;;5070920;28;20512;-77
2024/03/27 12:38:28;;;;;;;11.57;6.18;;;11.70;99.90;;;;;;5053994;28;20040;-77
2024/03/27 12:40:54;;;;;;;8.98;6.05;;;11.60;99.90;;;;;;5070311;28;20044;-77
2024/03/27 12:43:20;;;;;;;8.15;4.68;;;11.40;99.90;;;;;;5053614;28;20035;-77
2024/03/27 12:45:46;;;;;;;11.30;5.50;;;11.50;99.90;;;;;;5070499;28;20040;-77
2024/03/27 12:48:19;;;;;;;7.00;4.93;;;11.40;99.90;;;;;;5070445;28;20044;-77